createdAt,value
2018-04-15T00:01:26.019Z,37.50
2018-04-15T00:03:53.629Z,41.00
2018-04-15T00:06:21.337Z,39.70
2018-04-15T00:08:48.762Z,37.00
2018-04-15T00:11:16.202Z,36.20
2018-04-15T00:13:43.637Z,37.60
2018-04-15T00:16:11.121Z,39.50
2018-04-15T00:18:38.547Z,35.20
2018-04-15T00:21:05.969Z,34.90
2018-04-15T00:23:33.489Z,33.90
2018-04-15T00:26:00.955Z,36.90
2018-04-15T00:28:28.377Z,36.00
2018-04-15T00:30:55.892Z,38.50
2018-04-15T00:33:23.539Z,39.40
2018-04-15T00:35:51.110Z,39.30
2018-04-15T00:38:18.742Z,38.90
2018-04-15T00:40:46.165Z,39.60
2018-04-15T00:43:14.370Z,39.40
2018-04-15T00:45:41.793Z,39.90
2018-04-15T00:48:09.291Z,39.00
2018-04-15T00:50:36.709Z,37.50
2018-04-15T00:53:04.214Z,37.90
2018-04-15T00:55:31.642Z,38.10
2018-04-15T00:57:59.119Z,40.30
2018-04-15T01:00:26.593Z,39.10
2018-04-15T01:02:54.208Z,40.80
2018-04-15T01:05:21.623Z,42.40
2018-04-15T01:07:49.158Z,41.20
2018-04-15T01:10:18.450Z,42.80
2018-04-15T01:12:45.914Z,43.60
2018-04-15T01:15:13.344Z,42.30
2018-04-15T01:17:41.722Z,41.20
2018-04-15T01:20:09.171Z,41.20
2018-04-15T01:22:36.709Z,40.70
2018-04-15T01:25:04.208Z,40.30
2018-04-15T01:27:31.670Z,41.30
2018-04-15T01:29:59.125Z,41.20
2018-04-15T01:32:26.902Z,42.70
2018-04-15T01:34:54.354Z,39.80
2018-04-15T01:37:21.802Z,39.00
2018-04-15T01:39:49.230Z,39.00
2018-04-15T01:42:16.673Z,41.50
2018-04-15T01:44:44.090Z,41.10
2018-04-15T01:47:11.628Z,39.90
2018-04-15T01:49:39.410Z,42.80
2018-04-15T01:52:06.858Z,41.40
2018-04-15T01:54:34.604Z,37.10
2018-04-15T01:57:02.045Z,35.00
2018-04-15T01:59:29.517Z,35.70
2018-04-15T02:01:56.956Z,40.00
2018-04-15T02:04:24.450Z,40.00
2018-04-15T02:06:52.084Z,39.50
2018-04-15T02:09:19.503Z,39.60
2018-04-15T02:11:47.126Z,39.10
2018-04-15T02:14:14.850Z,39.10
2018-04-15T02:16:42.850Z,40.30
2018-04-15T02:19:10.275Z,41.50
2018-04-15T02:21:37.799Z,40.80
2018-04-15T02:24:05.261Z,42.50
2018-04-15T02:26:32.766Z,42.00
2018-04-15T02:29:00.221Z,40.80
2018-04-15T02:31:27.650Z,40.40
2018-04-15T02:33:55.134Z,40.50
2018-04-15T02:36:22.611Z,44.70
2018-04-15T02:38:50.047Z,44.40
2018-04-15T02:41:17.478Z,42.20
2018-04-15T02:43:44.974Z,44.60
2018-04-15T02:46:12.474Z,42.60
2018-04-15T02:48:40.092Z,42.30
2018-04-15T02:51:07.533Z,43.60
2018-04-15T02:53:35.010Z,41.30
2018-04-15T02:56:02.463Z,40.60
2018-04-15T02:58:29.913Z,43.60
2018-04-15T03:00:57.374Z,42.60
2018-04-15T03:03:24.831Z,41.80
2018-04-15T03:05:52.298Z,38.80
2018-04-15T03:08:19.856Z,36.70
2018-04-15T03:10:47.262Z,37.70
2018-04-15T03:13:14.806Z,38.40
2018-04-15T03:15:42.505Z,38.20
2018-04-15T03:18:09.955Z,39.20
2018-04-15T03:20:37.406Z,39.40
2018-04-15T03:23:04.825Z,38.10
2018-04-15T03:25:32.298Z,37.70
2018-04-15T03:27:59.722Z,37.70
2018-04-15T03:30:28.025Z,36.60
2018-04-15T03:32:55.619Z,36.60
2018-04-15T03:35:23.042Z,36.00
2018-04-15T03:37:50.503Z,36.80
2018-04-15T03:40:18.027Z,34.70
2018-04-15T03:42:45.462Z,36.50
2018-04-15T03:45:12.988Z,37.00
2018-04-15T03:47:40.658Z,38.40
2018-04-15T03:50:08.081Z,38.90
2018-04-15T03:52:35.642Z,38.40
2018-04-15T03:55:03.341Z,38.30
2018-04-15T03:57:30.793Z,38.30
2018-04-15T03:59:58.214Z,40.10
2018-04-15T04:02:25.720Z,39.40
2018-04-15T04:04:53.334Z,38.80
2018-04-15T04:07:20.942Z,39.60
2018-04-15T04:09:48.374Z,39.50
2018-04-15T04:12:15.802Z,41.40
2018-04-15T04:14:43.296Z,40.30
2018-04-15T04:17:10.750Z,42.10
2018-04-15T04:19:49.898Z,41.00
2018-04-15T04:22:29.317Z,42.50
2018-04-15T04:27:57.326Z,40.00
2018-04-15T04:30:24.856Z,41.20
2018-04-15T04:32:52.317Z,42.40
2018-04-15T04:35:19.783Z,42.20
2018-04-15T04:37:47.194Z,42.70
2018-04-15T04:40:14.694Z,43.90
2018-04-15T04:42:42.776Z,42.90
2018-04-15T04:45:10.278Z,42.60
2018-04-15T04:47:37.855Z,42.50
2018-04-15T04:50:05.318Z,42.10
2018-04-15T04:52:32.798Z,42.80
2018-04-15T04:55:00.261Z,42.80
2018-04-15T04:57:27.693Z,43.00
2018-04-15T04:59:55.170Z,42.90
2018-04-15T05:02:22.726Z,42.20
2018-04-15T05:04:50.174Z,41.00
2018-04-15T05:07:17.642Z,43.90
2018-04-15T05:09:45.292Z,43.00
2018-04-15T05:12:12.853Z,43.30
2018-04-15T05:14:40.306Z,43.90
2018-04-15T05:17:07.732Z,43.40
2018-04-15T05:19:35.217Z,44.20
2018-04-15T05:22:02.705Z,44.90
2018-04-15T05:24:30.433Z,44.30
2018-04-15T05:26:59.574Z,44.40
2018-04-15T05:29:27.233Z,46.00
2018-04-15T05:31:54.678Z,47.20
2018-04-15T05:34:22.280Z,45.80
2018-04-15T05:36:49.788Z,46.00
2018-04-15T05:39:17.319Z,46.20
2018-04-15T05:41:44.782Z,45.60
2018-04-15T05:44:12.249Z,42.90
2018-04-15T05:46:39.763Z,45.10
2018-04-15T05:49:07.413Z,45.40
2018-04-15T05:51:34.886Z,45.10
2018-04-15T05:54:02.397Z,46.00
2018-04-15T05:56:29.840Z,46.30
2018-04-15T05:58:57.285Z,46.30
2018-04-15T06:01:24.743Z,46.10
2018-04-15T06:03:52.164Z,47.10
2018-04-15T06:06:19.654Z,46.40
2018-04-15T06:08:47.304Z,46.10
2018-04-15T06:11:14.771Z,46.70
2018-04-15T06:13:42.240Z,48.40
2018-04-15T06:16:09.777Z,46.60
2018-04-15T06:18:37.814Z,47.30
2018-04-15T06:21:05.309Z,47.70
2018-04-15T06:23:32.771Z,48.80
2018-04-15T06:26:00.191Z,46.70
2018-04-15T06:28:27.627Z,46.10
2018-04-15T06:30:55.047Z,46.10
2018-04-15T06:33:22.481Z,46.10
2018-04-15T06:35:49.993Z,45.20
2018-04-15T06:38:17.438Z,46.20
2018-04-15T06:40:44.884Z,45.90
2018-04-15T06:43:12.302Z,45.30
2018-04-15T06:45:39.729Z,45.50
2018-04-15T06:48:07.953Z,45.80
2018-04-15T06:50:35.588Z,45.70
2018-04-15T06:53:03.822Z,46.00
2018-04-15T06:55:32.039Z,46.50
2018-04-15T06:57:59.486Z,46.50
2018-04-15T07:00:27.465Z,46.90
2018-04-15T07:02:55.180Z,46.60
2018-04-15T07:05:22.629Z,47.00
2018-04-15T07:07:50.053Z,46.80
2018-04-15T07:10:17.503Z,46.50
2018-04-15T07:12:45.171Z,45.50
2018-04-15T07:15:12.631Z,45.60
2018-04-15T07:17:40.366Z,45.00
2018-04-15T07:20:08.546Z,44.90
2018-04-15T07:22:36.030Z,44.80
2018-04-15T07:25:03.479Z,44.50
2018-04-15T07:27:30.932Z,45.00
2018-04-15T07:29:59.541Z,45.10
2018-04-15T07:32:26.977Z,44.20
2018-04-15T07:34:54.402Z,42.50
2018-04-15T07:37:21.975Z,43.40
2018-04-15T07:39:49.414Z,42.70
2018-04-15T07:42:16.859Z,42.80
2018-04-15T07:44:44.307Z,43.30
2018-04-15T07:47:11.815Z,43.50
2018-04-15T07:49:39.269Z,41.20
2018-04-15T07:52:06.686Z,40.70
2018-04-15T07:54:34.181Z,41.20
2018-04-15T07:57:01.659Z,41.20
2018-04-15T07:59:29.278Z,41.20
2018-04-15T08:01:56.853Z,41.20
2018-04-15T08:04:24.286Z,41.10
2018-04-15T08:06:51.705Z,40.30
2018-04-15T08:09:19.147Z,41.20
2018-04-15T08:11:46.696Z,40.30
2018-04-15T08:14:14.911Z,40.60
2018-04-15T08:16:43.128Z,40.90
2018-04-15T08:19:10.553Z,40.80
2018-04-15T08:21:37.975Z,40.80
2018-04-15T08:24:05.416Z,40.80
2018-04-15T08:26:32.833Z,39.40
2018-04-15T08:29:00.356Z,38.20
2018-04-15T08:31:27.793Z,37.10
2018-04-15T08:33:55.232Z,36.80
2018-04-15T08:36:22.642Z,37.10
2018-04-15T08:38:50.827Z,39.70
2018-04-15T08:41:18.258Z,40.30
2018-04-15T08:43:45.965Z,38.80
2018-04-15T08:46:13.397Z,38.10
2018-04-15T08:48:40.812Z,36.90
2018-04-15T08:51:08.285Z,36.40
2018-04-15T08:53:36.517Z,35.80
2018-04-15T08:56:03.961Z,35.70
2018-04-15T08:58:31.404Z,36.10
2018-04-15T09:00:58.871Z,36.10
2018-04-15T09:03:26.294Z,35.80
2018-04-15T09:05:53.733Z,35.10
2018-04-15T09:08:21.250Z,34.10
2018-04-15T09:10:49.090Z,32.30
2018-04-15T09:13:16.717Z,30.70
2018-04-15T09:15:44.133Z,31.00
2018-04-15T09:18:11.652Z,33.00
2018-04-15T09:20:39.045Z,30.70
2018-04-15T09:23:06.606Z,30.00
2018-04-15T09:25:34.357Z,30.20
2018-04-15T09:28:01.818Z,30.90
2018-04-15T09:30:29.246Z,31.70
2018-04-15T09:32:56.693Z,32.20
2018-04-15T09:35:24.162Z,30.50
2018-04-15T09:37:51.649Z,29.10
2018-04-15T09:40:19.098Z,27.90
2018-04-15T09:42:46.512Z,28.20
2018-04-15T09:45:14.017Z,27.80
2018-04-15T09:47:41.462Z,26.20
2018-04-15T09:50:08.925Z,26.80
2018-04-15T09:52:36.347Z,27.60
2018-04-15T09:55:03.842Z,26.90
2018-04-15T09:57:31.304Z,24.90
2018-04-15T09:59:59.664Z,25.60
2018-04-15T10:02:27.320Z,24.70
2018-04-15T10:04:55.427Z,21.30
2018-04-15T10:07:22.998Z,24.20
2018-04-15T10:09:51.284Z,23.50
2018-04-15T10:12:19.466Z,21.90
2018-04-15T10:14:47.165Z,21.90
2018-04-15T10:17:14.679Z,19.80
2018-04-15T10:19:42.279Z,21.30
2018-04-15T10:22:09.843Z,20.90
2018-04-15T10:24:37.503Z,20.50
2018-04-15T10:27:04.954Z,20.60
2018-04-15T10:29:32.518Z,18.80
2018-04-15T10:31:59.971Z,19.60
2018-04-15T10:34:27.400Z,18.30
2018-04-15T10:36:54.853Z,19.30
2018-04-15T10:39:23.265Z,17.00
2018-04-15T10:41:50.723Z,17.00
2018-04-15T10:44:18.202Z,18.00
2018-04-15T10:46:45.833Z,18.00
2018-04-15T10:49:13.398Z,18.40
2018-04-15T10:51:40.884Z,17.60
2018-04-15T10:54:08.498Z,17.30
2018-04-15T10:56:36.070Z,15.40
2018-04-15T10:59:03.486Z,16.20
2018-04-15T11:01:30.991Z,16.80
2018-04-15T11:03:58.422Z,17.00
2018-04-15T11:06:25.933Z,16.30
2018-04-15T11:08:54.425Z,16.50
2018-04-15T11:11:21.876Z,16.70
2018-04-15T11:13:49.344Z,16.10
2018-04-15T11:16:16.771Z,15.00
2018-04-15T11:18:44.297Z,12.90
2018-04-15T11:21:11.775Z,13.80
2018-04-15T11:23:39.306Z,15.80
2018-04-15T11:26:06.741Z,14.80
2018-04-15T11:28:34.259Z,13.80
2018-04-15T11:31:01.694Z,13.50
2018-04-15T11:33:29.113Z,14.20
2018-04-15T11:35:56.610Z,14.40
2018-04-15T11:38:24.056Z,15.30
2018-04-15T11:40:51.453Z,14.30
2018-04-15T11:43:18.880Z,13.50
2018-04-15T11:45:46.302Z,13.00
2018-04-15T11:48:13.878Z,12.60
2018-04-15T11:50:41.293Z,12.90
2018-04-15T11:53:08.709Z,11.80
2018-04-15T11:55:36.251Z,11.50
2018-04-15T11:58:03.724Z,11.60
2018-04-15T12:00:31.483Z,11.40
2018-04-15T12:02:58.934Z,10.90
2018-04-15T12:05:26.361Z,12.10
2018-04-15T12:07:53.794Z,12.40
2018-04-15T12:10:21.215Z,11.50
2018-04-15T12:12:48.670Z,10.40
2018-04-15T12:15:16.178Z,10.50
2018-04-15T12:17:43.752Z,8.80
2018-04-15T12:20:11.357Z,8.90
2018-04-15T12:22:38.910Z,10.10
2018-04-15T12:25:06.650Z,10.40
2018-04-15T12:27:34.111Z,10.50
2018-04-15T12:30:01.519Z,10.70
2018-04-15T12:32:28.964Z,10.80
2018-04-15T12:34:56.386Z,8.70
2018-04-15T12:37:23.937Z,8.10
2018-04-15T12:39:51.406Z,8.50
2018-04-15T12:42:18.881Z,6.70
2018-04-15T12:44:46.597Z,5.70
2018-04-15T12:47:14.066Z,7.40
2018-04-15T12:49:41.524Z,7.00
2018-04-15T12:52:08.981Z,3.80
2018-04-15T12:54:36.435Z,2.90
2018-04-15T12:57:03.882Z,2.40
2018-04-15T12:59:31.389Z,1.00
2018-04-15T13:01:58.816Z,1.00
2018-04-15T13:04:26.264Z,1.00
2018-04-15T13:06:53.712Z,1.00
2018-04-15T13:09:21.177Z,1.00
2018-04-15T13:11:48.581Z,1.00
2018-04-15T13:14:16.003Z,1.00
2018-04-15T13:16:43.545Z,1.00
2018-04-15T13:19:10.972Z,1.00
2018-04-15T13:21:38.383Z,1.00
2018-04-15T13:24:05.856Z,1.00
2018-04-15T13:26:33.366Z,1.00
2018-04-15T13:29:00.798Z,1.00
2018-04-15T13:31:28.479Z,1.00
2018-04-15T13:33:55.967Z,1.00
2018-04-15T13:36:23.502Z,1.00
2018-04-15T13:38:50.941Z,1.00
2018-04-15T13:41:18.416Z,1.00
2018-04-15T13:43:45.829Z,1.00
2018-04-15T13:46:14.024Z,1.00
2018-04-15T13:48:41.562Z,1.00
2018-04-15T13:51:09.786Z,1.00
2018-04-15T13:53:37.203Z,1.00
2018-04-15T13:56:04.675Z,1.00
2018-04-15T13:58:32.965Z,1.00
2018-04-15T14:01:00.567Z,1.00
2018-04-15T14:03:28.285Z,1.00
2018-04-15T14:05:55.693Z,1.00
2018-04-15T14:08:23.385Z,1.00
2018-04-15T14:10:50.862Z,1.00
2018-04-15T14:13:18.319Z,1.00
2018-04-15T14:15:45.711Z,1.00
2018-04-15T14:18:13.234Z,1.00
2018-04-15T14:20:40.782Z,1.00
2018-04-15T14:23:08.238Z,1.00
2018-04-15T14:25:35.663Z,1.00
2018-04-15T14:28:03.125Z,1.00
2018-04-15T14:30:30.543Z,1.00
2018-04-15T14:32:58.885Z,1.00
2018-04-15T14:35:26.337Z,1.00
2018-04-15T14:37:53.774Z,1.00
2018-04-15T14:40:21.346Z,1.00
2018-04-15T14:42:48.770Z,1.00
2018-04-15T14:45:16.181Z,1.00
2018-04-15T14:47:43.808Z,1.20
2018-04-15T14:50:11.203Z,1.00
2018-04-15T14:52:38.585Z,1.00
2018-04-15T14:55:06.095Z,1.00
2018-04-15T14:57:33.510Z,1.00
2018-04-15T15:00:00.934Z,2.70
2018-04-15T15:02:28.355Z,2.80
2018-04-15T15:04:55.834Z,2.50
2018-04-15T15:07:23.263Z,3.20
2018-04-15T15:09:50.737Z,3.20
2018-04-15T15:12:18.282Z,3.40
2018-04-15T15:14:45.713Z,3.10
2018-04-15T15:17:13.206Z,3.50
2018-04-15T15:19:40.712Z,4.80
2018-04-15T15:22:08.414Z,4.60
2018-04-15T15:24:37.099Z,4.70
2018-04-15T15:27:04.539Z,4.80
2018-04-15T15:29:32.022Z,5.30
2018-04-15T15:31:59.450Z,4.70
2018-04-15T15:34:26.925Z,4.90
2018-04-15T15:36:54.375Z,5.20
2018-04-15T15:39:21.835Z,5.40
2018-04-15T15:41:49.292Z,5.50
2018-04-15T15:44:16.718Z,4.90
2018-04-15T15:46:44.129Z,5.40
2018-04-15T15:49:11.664Z,5.60
2018-04-15T15:51:39.127Z,5.60
2018-04-15T15:54:06.574Z,5.90
2018-04-15T15:56:34.037Z,5.80
2018-04-15T15:59:02.322Z,5.60
2018-04-15T16:01:29.774Z,5.90
2018-04-15T16:03:57.198Z,5.80
2018-04-15T16:06:24.699Z,6.00
2018-04-15T16:08:52.240Z,6.00
2018-04-15T16:11:19.649Z,6.30
2018-04-15T16:13:47.074Z,5.70
2018-04-15T16:16:14.566Z,5.70
2018-04-15T16:18:41.987Z,6.00
2018-04-15T16:21:10.348Z,6.70
2018-04-15T16:23:37.844Z,6.60
2018-04-15T16:26:05.344Z,8.20
2018-04-15T16:28:32.797Z,6.30
2018-04-15T16:31:00.339Z,6.60
2018-04-15T16:33:27.906Z,6.00
2018-04-15T16:35:56.586Z,6.30
2018-04-15T16:38:24.986Z,7.10
2018-04-15T16:40:52.551Z,7.10
2018-04-15T16:43:19.990Z,7.50
2018-04-15T16:45:47.482Z,8.30
2018-04-15T16:48:14.924Z,8.10
2018-04-15T16:50:42.494Z,7.80
2018-04-15T16:53:09.994Z,8.30
2018-04-15T16:55:38.437Z,9.30
2018-04-15T16:58:05.946Z,9.20
2018-04-15T17:00:33.470Z,10.10
2018-04-15T17:03:00.898Z,9.10
2018-04-15T17:05:28.415Z,9.00
2018-04-15T17:07:56.029Z,9.20
2018-04-15T17:10:24.411Z,8.90
2018-04-15T17:12:52.852Z,10.20
2018-04-15T17:15:20.337Z,10.10
2018-04-15T17:17:49.359Z,10.30
2018-04-15T17:20:16.773Z,10.20
2018-04-15T17:22:44.257Z,10.10
2018-04-15T17:25:12.218Z,9.90
2018-04-15T17:27:39.748Z,10.20
2018-04-15T17:30:07.290Z,10.70
2018-04-15T17:32:34.970Z,10.90
2018-04-15T17:35:02.381Z,11.40
2018-04-15T17:37:29.869Z,11.30
2018-04-15T17:39:57.462Z,12.10
2018-04-15T17:42:24.934Z,12.00
2018-04-15T17:44:52.550Z,11.70
2018-04-15T17:47:20.009Z,13.60
2018-04-15T17:49:47.456Z,12.50
2018-04-15T17:52:14.871Z,11.60
2018-04-15T17:54:42.302Z,12.00
2018-04-15T17:57:09.843Z,11.50
2018-04-15T17:59:37.287Z,11.70
2018-04-15T18:02:04.705Z,14.50
2018-04-15T18:04:32.142Z,12.40
2018-04-15T18:06:59.578Z,13.60
2018-04-15T18:09:27.054Z,14.00
2018-04-15T18:11:54.476Z,13.20
2018-04-15T18:14:21.914Z,13.50
2018-04-15T18:16:49.342Z,14.10
2018-04-15T18:19:16.808Z,14.20
2018-04-15T18:21:44.314Z,14.60
2018-04-15T18:24:11.851Z,15.30
2018-04-15T18:26:39.266Z,15.60
2018-04-15T18:29:06.698Z,18.10
2018-04-15T18:31:34.143Z,17.50
2018-04-15T18:34:01.595Z,18.00
2018-04-15T18:36:29.006Z,17.20
2018-04-15T18:38:56.591Z,16.80
2018-04-15T18:41:24.006Z,15.50
2018-04-15T18:43:51.455Z,16.60
2018-04-15T18:46:18.959Z,17.10
2018-04-15T18:48:46.415Z,19.60
2018-04-15T18:51:13.833Z,22.50
2018-04-15T18:53:41.322Z,25.00
2018-04-15T18:56:08.741Z,27.00
2018-04-15T18:58:36.162Z,28.70
2018-04-15T19:01:03.607Z,28.20
2018-04-15T19:03:31.145Z,30.00
2018-04-15T19:05:58.590Z,30.00
2018-04-15T19:08:26.021Z,31.20
2018-04-15T19:10:53.453Z,30.90
2018-04-15T19:13:20.885Z,30.50
2018-04-15T19:15:48.354Z,31.60
2018-04-15T19:18:15.803Z,32.60
2018-04-15T19:20:43.338Z,32.80
2018-04-15T19:23:10.815Z,30.70
2018-04-15T19:25:38.438Z,32.20
2018-04-15T19:28:06.030Z,32.20
2018-04-15T19:30:33.453Z,31.70
2018-04-15T19:33:00.932Z,31.40
2018-04-15T19:35:29.328Z,33.10
2018-04-15T19:37:56.821Z,33.00
2018-04-15T19:40:24.544Z,32.90
2018-04-15T19:42:51.990Z,34.10
2018-04-15T19:45:19.444Z,32.80
2018-04-15T19:47:46.857Z,34.00
2018-04-15T19:50:14.279Z,34.10
2018-04-15T19:52:42.474Z,34.50
2018-04-15T19:55:10.094Z,34.60
2018-04-15T19:57:37.654Z,34.40
2018-04-15T20:00:05.102Z,34.10
2018-04-15T20:02:32.550Z,35.20
2018-04-15T20:04:59.982Z,35.50
2018-04-15T20:07:27.421Z,36.00
2018-04-15T20:09:54.930Z,36.70
2018-04-15T20:12:22.435Z,37.20
2018-04-15T20:14:49.856Z,36.30
2018-04-15T20:17:17.513Z,35.90
2018-04-15T20:19:45.085Z,35.80
2018-04-15T20:22:12.534Z,35.30
2018-04-15T20:24:39.999Z,36.00
2018-04-15T20:27:07.782Z,35.70
2018-04-15T20:29:35.261Z,35.70
2018-04-15T20:32:02.869Z,36.40
2018-04-15T20:34:30.312Z,37.10
2018-04-15T20:36:57.761Z,38.40
2018-04-15T20:39:25.327Z,38.90
2018-04-15T20:41:52.990Z,39.40
2018-04-15T20:44:20.537Z,39.50
2018-04-15T20:46:47.981Z,40.30
2018-04-15T20:49:15.410Z,40.70
2018-04-15T20:51:43.676Z,42.50
2018-04-15T20:54:11.181Z,42.50
2018-04-15T20:56:38.594Z,42.60
2018-04-15T20:59:06.786Z,41.40
2018-04-15T21:01:34.203Z,41.30
2018-04-15T21:04:01.630Z,42.10
2018-04-15T21:06:29.110Z,40.20
2018-04-15T21:08:56.629Z,41.80
2018-04-15T21:11:24.043Z,42.50
2018-04-15T21:13:51.542Z,39.90
2018-04-15T21:16:19.015Z,38.10
2018-04-15T21:18:46.643Z,38.00
2018-04-15T21:21:14.067Z,38.80
2018-04-15T21:23:41.643Z,39.60
2018-04-15T21:26:09.041Z,40.50
2018-04-15T21:28:36.461Z,37.20
2018-04-15T21:31:03.897Z,40.10
2018-04-15T21:33:32.430Z,39.00
2018-04-15T21:35:59.846Z,39.50
2018-04-15T21:38:27.277Z,40.20
2018-04-15T21:40:54.853Z,39.20
2018-04-15T21:43:22.437Z,40.90
2018-04-15T21:45:50.017Z,41.20
2018-04-15T21:48:17.429Z,40.30
2018-04-15T21:50:44.851Z,40.80
2018-04-15T21:53:12.266Z,39.00
2018-04-15T21:55:39.736Z,39.10
2018-04-15T21:58:07.331Z,39.60
2018-04-15T22:00:34.755Z,39.40
2018-04-15T22:03:02.179Z,40.30
2018-04-15T22:05:29.606Z,40.10
2018-04-15T22:07:57.042Z,40.30
2018-04-15T22:10:24.572Z,40.70
2018-04-15T22:12:52.075Z,40.40
2018-04-15T22:15:20.274Z,42.30
2018-04-15T22:17:48.654Z,42.10
2018-04-15T22:20:16.904Z,43.20
2018-04-15T22:22:44.338Z,43.10
2018-04-15T22:25:12.102Z,43.50
2018-04-15T22:27:39.722Z,44.70
2018-04-15T22:30:07.170Z,44.90
2018-04-15T22:32:34.790Z,44.40
2018-04-15T22:35:02.523Z,43.60
2018-04-15T22:37:29.942Z,44.80
2018-04-15T22:39:57.738Z,44.70
2018-04-15T22:42:25.157Z,44.30
2018-04-15T22:44:52.662Z,44.00
2018-04-15T22:47:20.089Z,45.00
2018-04-15T22:49:47.537Z,45.10
2018-04-15T22:52:14.974Z,45.70
2018-04-15T22:54:42.470Z,44.50
2018-04-15T22:57:13.845Z,45.40
2018-04-15T22:59:41.281Z,44.30
2018-04-15T23:02:08.721Z,43.60
2018-04-15T23:04:36.210Z,45.00
2018-04-15T23:07:03.750Z,43.50
2018-04-15T23:09:31.185Z,43.60
2018-04-15T23:11:58.661Z,42.50
2018-04-15T23:14:26.093Z,43.70
2018-04-15T23:16:53.528Z,43.80
2018-04-15T23:19:21.863Z,43.00
2018-04-15T23:21:49.414Z,43.00
2018-04-15T23:24:17.172Z,42.80
2018-04-15T23:26:44.594Z,43.70
2018-04-15T23:29:12.016Z,44.00
2018-04-15T23:31:39.437Z,43.80
2018-04-15T23:34:07.002Z,45.20
2018-04-15T23:36:34.423Z,45.70
2018-04-15T23:39:01.852Z,44.70
2018-04-15T23:41:29.273Z,44.30
2018-04-15T23:43:56.696Z,44.30
2018-04-15T23:46:24.282Z,45.70
2018-04-15T23:48:51.739Z,45.70
2018-04-15T23:51:19.175Z,45.90
2018-04-15T23:53:46.650Z,46.30
2018-04-15T23:56:14.105Z,44.40
2018-04-15T23:58:41.527Z,44.50
